sensor_id;sensor_type;location;lat;lon;timestamp;pressure;altitude;pressure_sealevel;temperature;humidity
17054;BME280;8643;48.824;11.422;2023-09-19T00:00:48;96577.81;;;15.12;100.00
17054;BME280;8643;48.824;11.422;2023-09-19T00:03:17;96580.63;;;15.15;100.00
17054;BME280;8643;48.824;11.422;2023-09-19T00:05:46;96581.25;;;15.05;100.00
17054;BME280;8643;48.824;11.422;2023-09-19T00:08:14;96575.66;;;14.98;100.00
17054;BME280;8643;48.824;11.422;2023-09-19T00:10:43;96578.50;;;15.05;100.00
17054;BME280;8643;48.824;11.422;2023-09-19T00:13:12;96577.66;;;15.01;100.00
17054;BME280;8643;48.824;11.422;2023-09-19T00:15:46;96582.88;;;14.83;100.00
17054;BME280;8643;48.824;11.422;2023-09-19T00:18:18;96581.03;;;14.68;100.00
17054;BME280;8643;48.824;11.422;2023-09-19T00:20:47;96581.19;;;14.55;100.00
17054;BME280;8643;48.824;11.422;2023-09-19T00:23:17;96574.75;;;14.47;100.00
17054;BME280;8643;48.824;11.422;2023-09-19T00:25:47;96574.75;;;14.47;100.00
17054;BME280;8643;48.824;11.422;2023-09-19T00:28:16;96572.44;;;14.49;100.00
17054;BME280;8643;48.824;11.422;2023-09-19T00:30:49;96575.25;;;14.53;100.00
17054;BME280;8643;48.824;11.422;2023-09-19T00:33:18;96580.81;;;14.57;100.00
17054;BME280;8643;48.824;11.422;2023-09-19T00:35:48;96580.38;;;14.55;100.00
17054;BME280;8643;48.824;11.422;2023-09-19T00:38:17;96581.13;;;14.52;100.00
17054;BME280;8643;48.824;11.422;2023-09-19T00:40:49;96583.19;;;14.58;100.00
17054;BME280;8643;48.824;11.422;2023-09-19T00:43:18;96582.69;;;14.72;100.00
17054;BME280;8643;48.824;11.422;2023-09-19T00:45:51;96584.50;;;14.88;100.00
17054;BME280;8643;48.824;11.422;2023-09-19T00:48:21;96585.13;;;15.00;100.00
17054;BME280;8643;48.824;11.422;2023-09-19T00:50:50;96581.44;;;15.16;100.00
17054;BME280;8643;48.824;11.422;2023-09-19T00:53:23;96586.50;;;15.14;100.00
17054;BME280;8643;48.824;11.422;2023-09-19T00:55:54;96584.84;;;15.32;100.00
17054;BME280;8643;48.824;11.422;2023-09-19T00:58:23;96584.56;;;15.41;100.00
17054;BME280;8643;48.824;11.422;2023-09-19T01:00:53;96590.81;;;15.38;100.00
17054;BME280;8643;48.824;11.422;2023-09-19T01:03:23;96588.28;;;15.26;100.00
17054;BME280;8643;48.824;11.422;2023-09-19T01:05:52;96590.50;;;15.16;100.00
17054;BME280;8643;48.824;11.422;2023-09-19T01:08:21;96599.94;;;15.15;100.00
17054;BME280;8643;48.824;11.422;2023-09-19T01:10:56;96599.88;;;15.12;100.00
17054;BME280;8643;48.824;11.422;2023-09-19T01:13:43;96590.63;;;15.00;100.00
17054;BME280;8643;48.824;11.422;2023-09-19T01:16:31;96604.72;;;14.95;100.00
17054;BME280;8643;48.824;11.422;2023-09-19T01:19:26;96608.53;;;14.87;100.00
17054;BME280;8643;48.824;11.422;2023-09-19T01:22:10;96601.78;;;14.84;100.00
17054;BME280;8643;48.824;11.422;2023-09-19T01:28:18;96602.09;;;14.79;100.00
17054;BME280;8643;48.824;11.422;2023-09-19T01:30:56;96609.53;;;14.75;100.00
17054;BME280;8643;48.824;11.422;2023-09-19T01:33:27;96602.09;;;14.79;100.00
17054;BME280;8643;48.824;11.422;2023-09-19T01:36:02;96599.34;;;14.79;100.00
17054;BME280;8643;48.824;11.422;2023-09-19T01:38:32;96604.06;;;14.79;100.00
17054;BME280;8643;48.824;11.422;2023-09-19T01:41:11;96607.25;;;14.81;100.00
17054;BME280;8643;48.824;11.422;2023-09-19T01:43:43;96606.09;;;14.82;100.00
17054;BME280;8643;48.824;11.422;2023-09-19T01:46:21;96618.41;;;14.88;100.00
17054;BME280;8643;48.824;11.422;2023-09-19T01:49:06;96617.00;;;14.98;100.00
17054;BME280;8643;48.824;11.422;2023-09-19T01:51:48;96611.53;;;15.01;100.00
17054;BME280;8643;48.824;11.422;2023-09-19T01:54:27;96625.75;;;15.03;100.00
17054;BME280;8643;48.824;11.422;2023-09-19T01:57:05;96616.31;;;15.05;100.00
17054;BME280;8643;48.824;11.422;2023-09-19T01:59:43;96624.63;;;15.08;100.00
17054;BME280;8643;48.824;11.422;2023-09-19T02:02:17;96629.00;;;15.09;100.00
17054;BME280;8643;48.824;11.422;2023-09-19T02:04:46;96630.53;;;15.07;100.00
17054;BME280;8643;48.824;11.422;2023-09-19T02:07:15;96629.69;;;15.02;100.00
17054;BME280;8643;48.824;11.422;2023-09-19T02:09:44;96620.28;;;15.07;100.00
17054;BME280;8643;48.824;11.422;2023-09-19T02:12:15;96612.56;;;15.16;100.00
17054;BME280;8643;48.824;11.422;2023-09-19T02:14:43;96621.94;;;15.12;100.00
17054;BME280;8643;48.824;11.422;2023-09-19T02:17:12;96626.63;;;15.08;100.00
17054;BME280;8643;48.824;11.422;2023-09-19T02:19:42;96626.53;;;15.04;100.00
17054;BME280;8643;48.824;11.422;2023-09-19T02:22:11;96621.00;;;15.04;100.00
17054;BME280;8643;48.824;11.422;2023-09-19T02:24:39;96619.53;;;15.10;100.00
17054;BME280;8643;48.824;11.422;2023-09-19T02:27:08;96630.16;;;15.08;100.00
17054;BME280;8643;48.824;11.422;2023-09-19T02:29:36;96623.41;;;15.06;100.00
17054;BME280;8643;48.824;11.422;2023-09-19T02:32:05;96642.34;;;15.07;100.00
17054;BME280;8643;48.824;11.422;2023-09-19T02:34:35;96640.03;;;15.09;100.00
17054;BME280;8643;48.824;11.422;2023-09-19T02:37:06;96641.19;;;15.08;100.00
17054;BME280;8643;48.824;11.422;2023-09-19T02:39:35;96646.97;;;14.99;100.00
17054;BME280;8643;48.824;11.422;2023-09-19T02:42:04;96646.88;;;14.96;100.00
17054;BME280;8643;48.824;11.422;2023-09-19T02:44:33;96643.34;;;14.95;100.00
17054;BME280;8643;48.824;11.422;2023-09-19T02:47:03;96645.25;;;14.91;100.00
17054;BME280;8643;48.824;11.422;2023-09-19T02:49:32;96648.72;;;14.88;100.00
17054;BME280;8643;48.824;11.422;2023-09-19T02:52:05;96658.53;;;14.85;100.00
17054;BME280;8643;48.824;11.422;2023-09-19T02:54:39;96665.56;;;14.83;100.00
17054;BME280;8643;48.824;11.422;2023-09-19T02:57:12;96651.91;;;14.90;100.00
17054;BME280;8643;48.824;11.422;2023-09-19T02:59:43;96667.34;;;14.95;100.00
17054;BME280;8643;48.824;11.422;2023-09-19T03:02:12;96672.97;;;15.02;100.00
17054;BME280;8643;48.824;11.422;2023-09-19T03:04:41;96665.75;;;14.94;100.00
17054;BME280;8643;48.824;11.422;2023-09-19T03:07:11;96678.31;;;14.91;100.00
17054;BME280;8643;48.824;11.422;2023-09-19T03:09:40;96682.03;;;14.79;100.00
17054;BME280;8643;48.824;11.422;2023-09-19T03:12:10;96680.81;;;14.77;100.00
17054;BME280;8643;48.824;11.422;2023-09-19T03:14:39;96681.59;;;14.77;100.00
17054;BME280;8643;48.824;11.422;2023-09-19T03:17:07;96678.22;;;14.64;100.00
17054;BME280;8643;48.824;11.422;2023-09-19T03:19:37;96686.13;;;14.66;100.00
17054;BME280;8643;48.824;11.422;2023-09-19T03:22:07;96680.25;;;14.68;100.00
17054;BME280;8643;48.824;11.422;2023-09-19T03:24:37;96691.03;;;14.76;100.00
17054;BME280;8643;48.824;11.422;2023-09-19T03:27:06;96697.66;;;14.72;100.00
17054;BME280;8643;48.824;11.422;2023-09-19T03:29:36;96698.56;;;14.79;100.00
17054;BME280;8643;48.824;11.422;2023-09-19T03:32:06;96696.16;;;14.78;100.00
17054;BME280;8643;48.824;11.422;2023-09-19T03:34:37;96693.72;;;14.73;100.00
17054;BME280;8643;48.824;11.422;2023-09-19T03:37:11;96696.84;;;14.71;100.00
17054;BME280;8643;48.824;11.422;2023-09-19T03:39:41;96708.44;;;14.80;100.00
17054;BME280;8643;48.824;11.422;2023-09-19T03:42:09;96702.31;;;14.91;100.00
17054;BME280;8643;48.824;11.422;2023-09-19T03:44:38;96698.53;;;14.99;100.00
17054;BME280;8643;48.824;11.422;2023-09-19T03:47:06;96692.38;;;14.86;100.00
17054;BME280;8643;48.824;11.422;2023-09-19T03:49:35;96693.78;;;14.76;100.00
17054;BME280;8643;48.824;11.422;2023-09-19T03:52:04;96694.91;;;14.72;100.00
17054;BME280;8643;48.824;11.422;2023-09-19T03:54:33;96698.81;;;14.71;100.00
17054;BME280;8643;48.824;11.422;2023-09-19T03:57:03;96705.91;;;14.72;100.00
17054;BME280;8643;48.824;11.422;2023-09-19T03:59:32;96711.84;;;14.74;100.00
17054;BME280;8643;48.824;11.422;2023-09-19T04:02:02;96707.13;;;14.74;100.00
17054;BME280;8643;48.824;11.422;2023-09-19T04:04:31;96708.00;;;14.78;100.00
17054;BME280;8643;48.824;11.422;2023-09-19T04:07:00;96708.13;;;14.85;100.00
17054;BME280;8643;48.824;11.422;2023-09-19T04:09:29;96708.75;;;14.98;100.00
17054;BME280;8643;48.824;11.422;2023-09-19T04:11:58;96707.03;;;14.90;100.00
17054;BME280;8643;48.824;11.422;2023-09-19T04:14:28;96700.66;;;14.86;100.00
17054;BME280;8643;48.824;11.422;2023-09-19T04:16:56;96702.63;;;14.85;100.00
17054;BME280;8643;48.824;11.422;2023-09-19T04:19:25;96699.88;;;14.85;100.00
17054;BME280;8643;48.824;11.422;2023-09-19T04:21:54;96705.75;;;14.84;100.00
17054;BME280;8643;48.824;11.422;2023-09-19T04:24:23;96709.84;;;14.94;100.00
17054;BME280;8643;48.824;11.422;2023-09-19T04:26:51;96720.94;;;14.97;100.00
17054;BME280;8643;48.824;11.422;2023-09-19T04:29:20;96725.63;;;14.93;100.00
17054;BME280;8643;48.824;11.422;2023-09-19T04:31:50;96714.53;;;14.90;100.00
17054;BME280;8643;48.824;11.422;2023-09-19T04:34:19;96723.22;;;14.92;100.00
17054;BME280;8643;48.824;11.422;2023-09-19T04:36:47;96730.47;;;15.00;100.00
17054;BME280;8643;48.824;11.422;2023-09-19T04:39:16;96730.22;;;15.09;100.00
17054;BME280;8643;48.824;11.422;2023-09-19T04:41:45;96730.34;;;15.16;100.00
17054;BME280;8643;48.824;11.422;2023-09-19T04:44:15;96734.25;;;15.15;100.00
17054;BME280;8643;48.824;11.422;2023-09-19T04:46:44;96730.00;;;15.17;100.00
17054;BME280;8643;48.824;11.422;2023-09-19T04:49:14;96735.13;;;15.19;100.00
17054;BME280;8643;48.824;11.422;2023-09-19T04:51:43;96735.41;;;15.14;100.00
17054;BME280;8643;48.824;11.422;2023-09-19T04:54:14;96744.16;;;15.16;100.00
17054;BME280;8643;48.824;11.422;2023-09-19T04:56:43;96743.28;;;15.12;100.00
17054;BME280;8643;48.824;11.422;2023-09-19T04:59:11;96741.25;;;15.09;100.00
17054;BME280;8643;48.824;11.422;2023-09-19T05:01:39;96739.50;;;15.00;100.00
17054;BME280;8643;48.824;11.422;2023-09-19T05:04:08;96745.03;;;15.00;100.00
17054;BME280;8643;48.824;11.422;2023-09-19T05:06:38;96746.06;;;14.92;100.00
17054;BME280;8643;48.824;11.422;2023-09-19T05:09:09;96746.22;;;14.80;100.00
17054;BME280;8643;48.824;11.422;2023-09-19T05:11:38;96746.44;;;14.71;100.00
17054;BME280;8643;48.824;11.422;2023-09-19T05:14:06;96744.34;;;14.64;100.00
17054;BME280;8643;48.824;11.422;2023-09-19T05:16:36;96754.03;;;14.58;100.00
17054;BME280;8643;48.824;11.422;2023-09-19T05:19:05;96749.69;;;14.57;100.00
17054;BME280;8643;48.824;11.422;2023-09-19T05:21:33;96742.22;;;14.58;100.00
17054;BME280;8643;48.824;11.422;2023-09-19T05:24:04;96752.38;;;14.54;100.00
17054;BME280;8643;48.824;11.422;2023-09-19T05:26:37;96755.84;;;14.51;100.00
17054;BME280;8643;48.824;11.422;2023-09-19T05:29:07;96748.44;;;14.55;100.00
17054;BME280;8643;48.824;11.422;2023-09-19T05:31:36;96747.72;;;14.58;100.00
17054;BME280;8643;48.824;11.422;2023-09-19T05:34:08;96748.03;;;14.53;100.00
17054;BME280;8643;48.824;11.422;2023-09-19T05:36:36;96756.72;;;14.55;100.00
17054;BME280;8643;48.824;11.422;2023-09-19T05:39:07;96755.50;;;14.52;100.00
17054;BME280;8643;48.824;11.422;2023-09-19T05:41:36;96758.97;;;14.49;100.00
17054;BME280;8643;48.824;11.422;2023-09-19T05:44:07;96755.03;;;14.50;100.00
17054;BME280;8643;48.824;11.422;2023-09-19T05:46:36;96758.69;;;14.54;100.00
17054;BME280;8643;48.824;11.422;2023-09-19T05:49:05;96756.38;;;14.76;100.00
17054;BME280;8643;48.824;11.422;2023-09-19T05:51:34;96771.06;;;15.23;100.00
17054;BME280;8643;48.824;11.422;2023-09-19T05:54:03;96768.22;;;15.88;100.00
17054;BME280;8643;48.824;11.422;2023-09-19T05:56:33;96766.72;;;16.48;100.00
17054;BME280;8643;48.824;11.422;2023-09-19T05:59:02;96769.78;;;17.03;100.00
17054;BME280;8643;48.824;11.422;2023-09-19T06:01:32;96780.16;;;17.14;100.00
17054;BME280;8643;48.824;11.422;2023-09-19T06:04:01;96777.41;;;16.49;100.00
17054;BME280;8643;48.824;11.422;2023-09-19T06:06:32;96791.97;;;16.20;100.00
17054;BME280;8643;48.824;11.422;2023-09-19T06:09:01;96786.41;;;16.43;100.00
17054;BME280;8643;48.824;11.422;2023-09-19T06:11:34;96792.75;;;16.77;100.00
17054;BME280;8643;48.824;11.422;2023-09-19T06:14:03;96797.06;;;16.75;100.00
17054;BME280;8643;48.824;11.422;2023-09-19T06:16:31;96793.66;;;16.85;100.00
17054;BME280;8643;48.824;11.422;2023-09-19T06:19:00;96799.75;;;16.67;100.00
17054;BME280;8643;48.824;11.422;2023-09-19T06:21:28;96806.91;;;16.42;100.00
17054;BME280;8643;48.824;11.422;2023-09-19T06:23:57;96813.13;;;16.35;100.00
17054;BME280;8643;48.824;11.422;2023-09-19T06:26:26;96815.13;;;16.11;100.00
17054;BME280;8643;48.824;11.422;2023-09-19T06:28:56;96812.25;;;16.31;100.00
17054;BME280;8643;48.824;11.422;2023-09-19T06:31:26;96806.81;;;17.29;100.00
17054;BME280;8643;48.824;11.422;2023-09-19T06:33:55;96812.78;;;18.21;100.00
17054;BME280;8643;48.824;11.422;2023-09-19T06:36:23;96809.19;;;18.79;100.00
17054;BME280;8643;48.824;11.422;2023-09-19T06:38:52;96812.56;;;19.39;100.00
17054;BME280;8643;48.824;11.422;2023-09-19T06:41:21;96822.53;;;19.62;100.00
17054;BME280;8643;48.824;11.422;2023-09-19T06:43:52;96826.19;;;19.80;100.00
17054;BME280;8643;48.824;11.422;2023-09-19T06:46:22;96822.59;;;20.19;100.00
17054;BME280;8643;48.824;11.422;2023-09-19T06:48:52;96822.59;;;19.98;100.00
17054;BME280;8643;48.824;11.422;2023-09-19T06:51:20;96820.19;;;19.82;100.00
17054;BME280;8643;48.824;11.422;2023-09-19T06:53:49;96823.28;;;19.37;100.00
17054;BME280;8643;48.824;11.422;2023-09-19T06:56:18;96816.59;;;19.74;100.00
17054;BME280;8643;48.824;11.422;2023-09-19T06:58:47;96818.97;;;19.61;100.00
17054;BME280;8643;48.824;11.422;2023-09-19T07:01:16;96829.28;;;19.71;100.00
17054;BME280;8643;48.824;11.422;2023-09-19T07:03:47;96830.47;;;19.52;100.00
17054;BME280;8643;48.824;11.422;2023-09-19T07:06:15;96825.34;;;20.44;100.00
17054;BME280;8643;48.824;11.422;2023-09-19T07:08:44;96834.09;;;19.78;100.00
17054;BME280;8643;48.824;11.422;2023-09-19T07:11:13;96834.53;;;18.81;100.00
17054;BME280;8643;48.824;11.422;2023-09-19T07:13:42;96850.31;;;18.07;100.00
17054;BME280;8643;48.824;11.422;2023-09-19T07:16:11;96848.56;;;17.92;100.00
17054;BME280;8643;48.824;11.422;2023-09-19T07:18:56;96843.16;;;17.65;100.00
17054;BME280;8643;48.824;11.422;2023-09-19T07:21:25;96842.50;;;17.79;100.00
17054;BME280;8643;48.824;11.422;2023-09-19T07:23:53;96850.81;;;18.24;100.00
17054;BME280;8643;48.824;11.422;2023-09-19T07:26:22;96849.78;;;17.94;100.00
17054;BME280;8643;48.824;11.422;2023-09-19T07:28:52;96849.06;;;18.01;100.00
17054;BME280;8643;48.824;11.422;2023-09-19T07:31:21;96849.66;;;17.84;100.00
17054;BME280;8643;48.824;11.422;2023-09-19T07:33:50;96857.25;;;18.39;100.00
17054;BME280;8643;48.824;11.422;2023-09-19T07:36:20;96851.31;;;18.37;100.00
17054;BME280;8643;48.824;11.422;2023-09-19T07:38:48;96859.75;;;18.03;100.00
17054;BME280;8643;48.824;11.422;2023-09-19T07:41:16;96861.75;;;19.35;100.00
17054;BME280;8643;48.824;11.422;2023-09-19T07:43:45;96850.72;;;19.74;100.00
17054;BME280;8643;48.824;11.422;2023-09-19T07:46:13;96857.41;;;19.45;100.00
17054;BME280;8643;48.824;11.422;2023-09-19T07:48:42;96870.22;;;18.83;100.00
17054;BME280;8643;48.824;11.422;2023-09-19T07:51:16;96861.66;;;18.43;100.00
17054;BME280;8643;48.824;11.422;2023-09-19T07:53:45;96868.31;;;18.91;100.00
17054;BME280;8643;48.824;11.422;2023-09-19T07:56:15;96868.50;;;18.64;100.00
17054;BME280;8643;48.824;11.422;2023-09-19T07:58:47;96863.81;;;18.72;100.00
17054;BME280;8643;48.824;11.422;2023-09-19T08:01:15;96865.06;;;19.84;100.00
17054;BME280;8643;48.824;11.422;2023-09-19T08:03:44;96865.38;;;21.01;100.00
17054;BME280;8643;48.824;11.422;2023-09-19T08:06:13;96874.56;;;21.83;93.59
17054;BME280;8643;48.824;11.422;2023-09-19T08:08:41;96862.25;;;21.76;90.97
17054;BME280;8643;48.824;11.422;2023-09-19T08:11:11;96871.09;;;21.60;87.45
17054;BME280;8643;48.824;11.422;2023-09-19T08:13:40;96867.00;;;20.84;93.56
17054;BME280;8643;48.824;11.422;2023-09-19T08:16:11;96868.19;;;19.64;97.96
17054;BME280;8643;48.824;11.422;2023-09-19T08:18:39;96865.50;;;18.87;100.00
17054;BME280;8643;48.824;11.422;2023-09-19T08:21:08;96872.78;;;18.50;100.00
17054;BME280;8643;48.824;11.422;2023-09-19T08:23:38;96874.94;;;18.20;100.00
17054;BME280;8643;48.824;11.422;2023-09-19T08:26:07;96878.72;;;18.01;100.00
17054;BME280;8643;48.824;11.422;2023-09-19T08:28:37;96880.22;;;17.91;100.00
17054;BME280;8643;48.824;11.422;2023-09-19T08:31:08;96882.91;;;17.84;100.00
17054;BME280;8643;48.824;11.422;2023-09-19T08:33:37;96892.00;;;17.47;100.00
17054;BME280;8643;48.824;11.422;2023-09-19T08:36:07;96905.63;;;17.29;100.00
17054;BME280;8643;48.824;11.422;2023-09-19T08:38:36;96918.38;;;16.80;100.00
17054;BME280;8643;48.824;11.422;2023-09-19T08:41:07;96912.19;;;16.33;100.00
17054;BME280;8643;48.824;11.422;2023-09-19T08:43:37;96912.53;;;16.08;100.00
17054;BME280;8643;48.824;11.422;2023-09-19T08:46:10;96922.31;;;15.79;100.00
17054;BME280;8643;48.824;11.422;2023-09-19T08:48:46;96934.94;;;15.61;100.00
17054;BME280;8643;48.824;11.422;2023-09-19T08:51:22;96922.50;;;15.51;100.00
17054;BME280;8643;48.824;11.422;2023-09-19T08:54:03;96936.13;;;15.40;100.00
17054;BME280;8643;48.824;11.422;2023-09-19T08:56:33;96944.53;;;15.28;100.00
17054;BME280;8643;48.824;11.422;2023-09-19T08:59:05;96949.44;;;15.18;100.00
17054;BME280;8643;48.824;11.422;2023-09-19T09:01:36;96941.03;;;15.11;100.00
17054;BME280;8643;48.824;11.422;2023-09-19T09:04:09;96946.19;;;15.13;100.00
17054;BME280;8643;48.824;11.422;2023-09-19T09:06:43;96952.06;;;15.11;100.00
17054;BME280;8643;48.824;11.422;2023-09-19T09:09:15;96952.41;;;15.10;100.00
17054;BME280;8643;48.824;11.422;2023-09-19T09:11:45;96953.28;;;15.33;100.00
17054;BME280;8643;48.824;11.422;2023-09-19T09:14:15;96946.41;;;15.43;100.00
17054;BME280;8643;48.824;11.422;2023-09-19T09:16:44;96950.41;;;15.46;100.00
17054;BME280;8643;48.824;11.422;2023-09-19T09:19:13;96951.19;;;15.46;100.00
17054;BME280;8643;48.824;11.422;2023-09-19T09:21:41;96962.31;;;15.50;100.00
17054;BME280;8643;48.824;11.422;2023-09-19T09:24:29;96958.97;;;15.40;100.00
17054;BME280;8643;48.824;11.422;2023-09-19T09:26:57;96967.03;;;15.49;100.00
17054;BME280;8643;48.824;11.422;2023-09-19T09:29:45;96961.09;;;15.47;100.00
17054;BME280;8643;48.824;11.422;2023-09-19T09:32:21;96962.16;;;15.43;100.00
17054;BME280;8643;48.824;11.422;2023-09-19T09:34:53;96961.44;;;15.46;100.00
17054;BME280;8643;48.824;11.422;2023-09-19T09:37:26;96959.84;;;15.45;100.00
17054;BME280;8643;48.824;11.422;2023-09-19T09:40:00;96956.22;;;15.40;100.00
17054;BME280;8643;48.824;11.422;2023-09-19T09:42:47;96975.00;;;15.15;100.00
17054;BME280;8643;48.824;11.422;2023-09-19T09:45:23;96964.91;;;15.23;100.00
17054;BME280;8643;48.824;11.422;2023-09-19T09:48:05;96967.00;;;15.10;100.00
17054;BME280;8643;48.824;11.422;2023-09-19T09:50:47;96966.31;;;14.97;100.00
17054;BME280;8643;48.824;11.422;2023-09-19T09:53:25;96963.66;;;15.01;100.00
17054;BME280;8643;48.824;11.422;2023-09-19T09:56:04;96963.16;;;15.15;100.00
17054;BME280;8643;48.824;11.422;2023-09-19T09:58:38;96968.75;;;15.57;100.00
17054;BME280;8643;48.824;11.422;2023-09-19T10:01:18;96977.63;;;15.67;100.00
17054;BME280;8643;48.824;11.422;2023-09-19T10:03:48;96966.56;;;16.06;100.00
17054;BME280;8643;48.824;11.422;2023-09-19T10:06:18;96966.09;;;16.23;100.00
17054;BME280;8643;48.824;11.422;2023-09-19T10:09:02;96966.75;;;16.17;100.00
17054;BME280;8643;48.824;11.422;2023-09-19T10:11:41;96968.28;;;16.37;100.00
17054;BME280;8643;48.824;11.422;2023-09-19T10:14:14;96963.13;;;16.36;100.00
17054;BME280;8643;48.824;11.422;2023-09-19T10:16:48;96978.66;;;16.44;100.00
17054;BME280;8643;48.824;11.422;2023-09-19T10:19:23;96981.03;;;17.22;100.00
17054;BME280;8643;48.824;11.422;2023-09-19T10:21:54;96976.63;;;17.48;100.00
17054;BME280;8643;48.824;11.422;2023-09-19T10:24:26;96986.69;;;17.93;100.00
17054;BME280;8643;48.824;11.422;2023-09-19T10:27:00;96980.25;;;18.64;100.00
17054;BME280;8643;48.824;11.422;2023-09-19T10:29:34;96970.47;;;19.48;100.00
17054;BME280;8643;48.824;11.422;2023-09-19T10:32:06;96978.13;;;19.72;100.00
17054;BME280;8643;48.824;11.422;2023-09-19T10:34:36;96981.84;;;20.20;100.00
17054;BME280;8643;48.824;11.422;2023-09-19T10:37:12;96980.66;;;20.28;98.78
17054;BME280;8643;48.824;11.422;2023-09-19T10:39:46;96987.44;;;20.95;99.31
17054;BME280;8643;48.824;11.422;2023-09-19T10:42:19;96982.31;;;20.83;93.21
17054;BME280;8643;48.824;11.422;2023-09-19T10:44:52;96986.66;;;20.87;89.91
17054;BME280;8643;48.824;11.422;2023-09-19T10:47:23;96985.44;;;21.14;91.83
17054;BME280;8643;48.824;11.422;2023-09-19T10:49:52;96984.25;;;21.22;86.44
17054;BME280;8643;48.824;11.422;2023-09-19T10:52:25;96991.41;;;21.19;85.39
17054;BME280;8643;48.824;11.422;2023-09-19T10:54:56;96981.88;;;20.95;87.34
17054;BME280;8643;48.824;11.422;2023-09-19T10:57:28;96990.19;;;21.24;85.85
17054;BME280;8643;48.824;11.422;2023-09-19T11:00:06;96981.03;;;21.31;86.34
17054;BME280;8643;48.824;11.422;2023-09-19T11:03:21;96977.78;;;21.61;85.56
17054;BME280;8643;48.824;11.422;2023-09-19T11:06:11;96982.03;;;21.91;81.88
17054;BME280;8643;48.824;11.422;2023-09-19T11:08:58;96979.09;;;22.20;81.00
17054;BME280;8643;48.824;11.422;2023-09-19T11:11:48;96969.38;;;21.72;79.39
17054;BME280;8643;48.824;11.422;2023-09-19T11:14:38;96967.47;;;21.43;78.72
17054;BME280;8643;48.824;11.422;2023-09-19T11:17:39;96961.28;;;21.99;79.31
17054;BME280;8643;48.824;11.422;2023-09-19T11:20:26;96965.94;;;22.20;75.89
17054;BME280;8643;48.824;11.422;2023-09-19T11:23:20;96968.47;;;22.60;75.96
17054;BME280;8643;48.824;11.422;2023-09-19T11:25:54;96970.06;;;23.02;73.59
17054;BME280;8643;48.824;11.422;2023-09-19T11:28:33;96968.25;;;22.32;75.04
17054;BME280;8643;48.824;11.422;2023-09-19T11:31:48;96962.44;;;22.65;73.92
17054;BME280;8643;48.824;11.422;2023-09-19T11:34:47;96964.97;;;22.94;72.22
17054;BME280;8643;48.824;11.422;2023-09-19T11:38:01;96961.59;;;23.51;69.74
17054;BME280;8643;48.824;11.422;2023-09-19T11:40:38;96964.88;;;23.04;69.93
17054;BME280;8643;48.824;11.422;2023-09-19T11:43:30;96961.28;;;23.04;69.21
17054;BME280;8643;48.824;11.422;2023-09-19T11:46:05;96957.50;;;22.31;72.24
17054;BME280;8643;48.824;11.422;2023-09-19T11:48:35;96956.06;;;22.05;72.68
17054;BME280;8643;48.824;11.422;2023-09-19T11:51:14;96956.31;;;22.81;72.19
17054;BME280;8643;48.824;11.422;2023-09-19T11:53:53;96951.28;;;23.06;71.09
17054;BME280;8643;48.824;11.422;2023-09-19T11:56:24;96947.22;;;23.18;71.86
17054;BME280;8643;48.824;11.422;2023-09-19T11:58:55;96949.44;;;22.47;70.67
17054;BME280;8643;48.824;11.422;2023-09-19T12:01:30;96947.66;;;21.16;74.18
17054;BME280;8643;48.824;11.422;2023-09-19T12:04:03;96951.69;;;20.50;75.49
17054;BME280;8643;48.824;11.422;2023-09-19T12:06:32;96951.69;;;20.32;79.58
17054;BME280;8643;48.824;11.422;2023-09-19T12:09:05;96950.47;;;20.19;79.98
17054;BME280;8643;48.824;11.422;2023-09-19T12:11:42;96949.28;;;20.35;80.92
17054;BME280;8643;48.824;11.422;2023-09-19T12:14:22;96952.47;;;20.40;82.73
17054;BME280;8643;48.824;11.422;2023-09-19T12:16:56;96950.88;;;20.93;77.90
17054;BME280;8643;48.824;11.422;2023-09-19T12:19:28;96949.28;;;20.52;78.08
17054;BME280;8643;48.824;11.422;2023-09-19T12:22:00;96945.69;;;20.09;80.49
17054;BME280;8643;48.824;11.422;2023-09-19T12:24:34;96944.84;;;19.98;80.24
17054;BME280;8643;48.824;11.422;2023-09-19T12:27:07;96942.16;;;20.91;81.49
17054;BME280;8643;48.824;11.422;2023-09-19T12:29:44;96937.63;;;21.51;77.51
17054;BME280;8643;48.824;11.422;2023-09-19T12:32:13;96930.03;;;21.45;75.22
17054;BME280;8643;48.824;11.422;2023-09-19T12:34:51;96933.19;;;21.57;76.61
17054;BME280;8643;48.824;11.422;2023-09-19T12:37:22;96933.69;;;22.15;74.68
17054;BME280;8643;48.824;11.422;2023-09-19T12:40:07;96921.13;;;22.45;71.96
17054;BME280;8643;48.824;11.422;2023-09-19T12:42:46;96924.09;;;21.39;75.33
17054;BME280;8643;48.824;11.422;2023-09-19T12:45:16;96924.97;;;22.10;74.34
17054;BME280;8643;48.824;11.422;2023-09-19T12:48:20;96925.78;;;22.07;72.81
17054;BME280;8643;48.824;11.422;2023-09-19T12:51:04;96926.72;;;21.86;72.28
17054;BME280;8643;48.824;11.422;2023-09-19T12:53:36;96921.94;;;21.83;72.50
17054;BME280;8643;48.824;11.422;2023-09-19T12:56:12;96922.66;;;21.97;74.22
17054;BME280;8643;48.824;11.422;2023-09-19T12:58:51;96920.41;;;21.74;71.15
17054;BME280;8643;48.824;11.422;2023-09-19T13:01:23;96914.44;;;21.72;72.95
17054;BME280;8643;48.824;11.422;2023-09-19T13:04:15;96910.25;;;22.06;70.65
17054;BME280;8643;48.824;11.422;2023-09-19T13:06:50;96913.63;;;21.79;71.01
17054;BME280;8643;48.824;11.422;2023-09-19T13:09:20;96905.31;;;21.68;71.74
17054;BME280;8643;48.824;11.422;2023-09-19T13:11:51;96911.66;;;21.72;71.12
17054;BME280;8643;48.824;11.422;2023-09-19T13:14:23;96903.25;;;21.79;69.72
17054;BME280;8643;48.824;11.422;2023-09-19T13:16:56;96903.81;;;21.38;68.43
17054;BME280;8643;48.824;11.422;2023-09-19T13:19:40;96900.81;;;20.90;72.63
17054;BME280;8643;48.824;11.422;2023-09-19T13:22:39;96899.59;;;20.94;72.48
17054;BME280;8643;48.824;11.422;2023-09-19T13:25:12;96899.56;;;21.01;70.59